Data for 03/27/2005

Time Sea-Level Adjusted Pressure Absolute Pressure Temperature Relative Humidity Dew Point   
(mb) (inHg) (mb) (inHg) (C) (F) (%) (C) (F)
00:05 1013 29.91 843 24.89 4.4 39.9 53 -4.3 24.3
00:10 1014 29.94 843 24.89 4.4 39.9 52 -4.5 23.9
00:15 1013 29.91 843 24.89 4.5 40.1 51 -4.8 23.4
00:20 1014 29.94 843 24.89 4.7 40.5 49 -5 22.9
00:25 1013 29.91 843 24.89 5 41 50 -4.7 23.6
00:30 1013 29.91 842 24.86 4.9 40.8 51 -4.5 23.9
00:35 1013 29.91 842 24.86 4.8 40.7 51 -4.4 24.2
00:40 1013 29.91 842 24.86 5 41.1 50 -4.6 23.7
00:45 1013 29.91 842 24.86 5.1 41.2 50 -4.6 23.7
00:50 1013 29.91 842 24.86 5.1 41.2 50 -4.6 23.8
00:55 1013 29.91 842 24.86 5 41 50 -4.6 23.7
01:00 1013 29.91 842 24.86 5.3 41.6 47 -4.9 23.1
01:05 1013 29.91 842 24.86 5.7 42.2 47 -4.7 23.6
01:10 1013 29.91 842 24.86 5.7 42.3 48 -4.5 23.9
01:15 1013 29.91 842 24.86 5.3 41.6 51 -3.9 25
01:20 1013 29.91 842 24.86 4.7 40.5 51 -4.5 24
01:25 1013 29.91 842 24.86 5 40.9 50 -4.5 23.9
01:30 1013 29.91 842 24.86 4.7 40.5 52 -4.2 24.4
01:35 1013 29.91 842 24.86 4.5 40.1 54 -4 24.8
01:40 1013 29.91 842 24.86 4.3 39.7 55 -4.1 24.7
01:45 1013 29.91 842 24.86 3.9 39.1 57 -3.9 25
01:50 1013 29.91 842 24.86 3.7 38.7 56 -4.1 24.5
01:55 1013 29.91 842 24.86 3.6 38.5 57 -4.2 24.5
02:00 1013 29.91 842 24.86 3.5 38.4 57 -4.3 24.3
02:05 1012 29.88 842 24.86 3.4 38.1 57 -4.3 24.3
02:10 1013 29.91 842 24.86 3.6 38.5 55 -4.6 23.7
02:15 1013 29.91 842 24.86 3.9 39 53 -4.7 23.5
02:20 1013 29.91 842 24.86 4.7 40.4 50 -4.8 23.4
02:25 1013 29.91 842 24.86 5.1 41.2 50 -4.5 23.8
02:30 1012 29.88 842 24.86 5.2 41.3 51 -4.2 24.4
02:35 1012 29.88 842 24.86 5.2 41.4 49 -4.7 23.5
02:40 1012 29.88 842 24.86 5.4 41.7 50 -4.3 24.3
02:45 1013 29.91 842 24.86 5.4 41.7 50 -4.3 24.3
02:50 1013 29.91 842 24.86 5.3 41.5 51 -3.9 24.9
02:55 1013 29.91 842 24.86 4.3 39.8 56 -3.6 25.6
03:00 1012 29.88 842 24.86 3.6 38.5 57 -4.1 24.6
03:05 1012 29.88 842 24.86 3.6 38.6 57 -4 24.9
03:10 1012 29.88 842 24.86 3.8 38.8 56 -4.2 24.5
03:15 1012 29.88 841 24.83 4.2 39.5 55 -4.1 24.6
03:20 1012 29.88 841 24.83 4.5 40.1 53 -4.2 24.4
03:25 1012 29.88 841 24.83 4.7 40.5 52 -4.4 24.1
03:30 1012 29.88 841 24.83 4.8 40.7 51 -4.4 24.1
03:35 1012 29.88 841 24.83 4.9 40.8 52 -4.3 24.3
03:40 1012 29.88 841 24.83 4.7 40.5 55 -3.6 25.4
03:45 1012 29.88 841 24.83 4.5 40 54 -4.1 24.6
03:50 1012 29.88 841 24.83 4.8 40.7 52 -4.3 24.3
03:55 1012 29.88 841 24.83 5.4 41.7 51 -4 24.7
04:00 1012 29.88 841 24.83 5.7 42.2 49 -4.1 24.6
04:05 1012 29.88 841 24.83 5.8 42.5 50 -3.8 25.2
04:10 1012 29.88 841 24.83 5.6 42.1 52 -3.5 25.8
04:15 1012 29.88 841 24.83 5.3 41.6 53 -3.4 26
04:20 1011 29.85 841 24.83 5.9 42.5 49 -4 24.8
04:25 1011 29.85 841 24.83 6.7 44.1 47 -3.9 25
04:30 1011 29.85 841 24.83 7.1 44.8 46 -3.8 25.2
04:35 1011 29.85 840 24.81 7.3 45.1 45 -3.7 25.3
04:40 1011 29.85 840 24.81 7.5 45.4 46 -3.5 25.7
04:45 1011 29.85 840 24.81 7.3 45.2 45 -3.7 25.3
04:50 1011 29.85 840 24.81 7.4 45.3 45 -3.6 25.5
04:55 1011 29.85 840 24.81 7.4 45.4 45 -3.7 25.3
05:00 1011 29.85 840 24.81 7.6 45.6 45 -3.5 25.7
05:05 1011 29.85 840 24.81 7.7 45.8 45 -3.4 25.8
05:10 1011 29.85 840 24.81 7.8 46 45 -3.4 25.9
05:15 1011 29.85 840 24.81 7.7 45.8 46 -3.3 26
05:20 1011 29.85 840 24.81 7.7 45.8 45 -3.4 25.8
05:25 1011 29.85 840 24.81 7.7 45.8 45 -3.5 25.8
05:30 1011 29.85 840 24.81 7.9 46.1 44 -3.6 25.5
05:35 1011 29.85 840 24.81 7.7 45.8 44 -3.7 25.4
05:40 1011 29.85 840 24.81 7.5 45.5 46 -3.3 26
05:45 1011 29.85 840 24.81 7.3 45.1 46 -3.7 25.4
05:50 1011 29.85 840 24.81 7.2 45 46 -3.6 25.5
05:55 1011 29.85 840 24.81 7 44.5 48 -3.3 26.1
06:00 1011 29.85 840 24.81 6.9 44.3 48 -3.3 26.1
06:05 1011 29.85 840 24.81 6.8 44.2 48 -3.3 26
06:10 1011 29.85 840 24.81 7.1 44.8 47 -3.4 25.8
06:15 1011 29.85 840 24.81 7 44.6 49 -3.1 26.4
06:20 1011 29.85 840 24.81 7 44.5 48 -3.4 26
06:25 1011 29.85 840 24.81 7 44.5 49 -3.1 26.5
06:30 1011 29.85 840 24.81 7 44.6 47 -3.4 25.8
06:35 1011 29.85 840 24.81 6.9 44.5 49 -3 26.5
06:40 1011 29.85 840 24.81 6.8 44.2 50 -2.9 26.8
06:45 1011 29.85 840 24.81 6.8 44.2 49 -3.1 26.3
06:50 1011 29.85 840 24.81 7 44.5 48 -3.3 26.1
06:55 1011 29.85 840 24.81 7 44.6 48 -3.2 26.3
07:00 1011 29.85 840 24.81 6.9 44.4 49 -3 26.6
07:05 1011 29.85 840 24.81 6.8 44.3 49 -3.2 26.3
07:10 1011 29.85 840 24.81 6.8 44.2 49 -3.2 26.2
07:15 1011 29.85 840 24.81 7 44.5 46 -3.8 25.1
07:20 1011 29.85 840 24.81 7.2 45 46 -3.6 25.6
07:25 1011 29.85 840 24.81 7.2 45 46 -3.6 25.6
07:30 1011 29.85 840 24.81 7.1 44.8 47 -3.5 25.6
07:35 1011 29.85 840 24.81 7 44.7 47 -3.6 25.6
07:40 1011 29.85 840 24.81 7 44.6 48 -3.4 26
07:45 1011 29.85 840 24.81 7.2 44.9 46 -3.6 25.5
07:50 1011 29.85 840 24.81 7.2 45 47 -3.2 26.3
07:55 1011 29.85 840 24.81 7.2 44.9 48 -3.1 26.5
08:00 1011 29.85 840 24.81 7.1 44.7 48 -3.1 26.5
08:05 1011 29.85 840 24.81 7 44.6 49 -3 26.6
08:10 1011 29.85 840 24.81 7 44.7 49 -3 26.6
08:15 1011 29.85 840 24.81 7.2 45 49 -2.7 27.2
08:20 1011 29.85 840 24.81 7.5 45.4 48 -2.8 27
08:25 1011 29.85 840 24.81 7.6 45.7 47 -3.1 26.5
08:30 1011 29.85 840 24.81 7.7 45.9 47 -2.7 27.1
08:35 1011 29.85 840 24.81 7.8 46 47 -2.9 26.7
08:40 1011 29.85 840 24.81 7.9 46.2 46 -2.9 26.8
08:45 1010 29.83 840 24.81 8.2 46.8 44 -3.4 25.9
08:50 1010 29.83 839 24.78 8.8 47.8 42 -3.4 26
08:55 1010 29.83 839 24.78 9 48.2 41 -3.6 25.5
09:00 1010 29.83 839 24.78 9.1 48.3 41 -3.4 26
09:05 1010 29.83 839 24.78 9.2 48.5 41 -3.4 25.9
09:10 1010 29.83 839 24.78 9.2 48.6 42 -3 26.6
09:15 1010 29.83 839 24.78 9.5 49 42 -2.8 27
09:20 1010 29.83 839 24.78 9.6 49.3 40 -3.4 25.9
09:25 1010 29.83 839 24.78 9.7 49.4 40 -3.3 26.1
09:30 1010 29.83 839 24.78 9.9 49.8 40 -3.2 26.3
09:35 1010 29.83 839 24.78 10 50 38 -3.5 25.7
09:40 1010 29.83 839 24.78 10 49.9 39 -3.3 26
09:45 1010 29.83 839 24.78 9.9 49.9 38 -3.7 25.4
09:50 1010 29.83 839 24.78 10.1 50.2 38 -3.7 25.4
09:55 1010 29.83 839 24.78 10.3 50.5 36 -4.3 24.3
10:00 1010 29.83 839 24.78 10.2 50.4 38 -3.5 25.8
10:05 1010 29.83 839 24.78 10.5 50.9 38 -3.2 26.2
10:10 1010 29.83 839 24.78 11.3 52.4 34 -4 24.8
10:15 1010 29.83 839 24.78 11.3 52.4 35 -3.5 25.7
10:20 1010 29.83 839 24.78 11.5 52.6 34 -3.8 25.2
10:25 1010 29.83 839 24.78 12.3 54.2 33 -3.6 25.5
10:30 1010 29.83 839 24.78 12.2 54 34 -3.3 26
10:35 1009 29.8 839 24.78 11.7 53.1 32 -4.2 24.4
10:40 1010 29.83 839 24.78 11.9 53.5 33 -3.7 25.4
10:45 1009 29.8 839 24.78 12.1 53.8 33 -3.7 25.3
10:50 1009 29.8 839 24.78 12.2 54 32 -3.8 25.1
10:55 1009 29.8 839 24.78 12.4 54.3 33 -3.5 25.7
11:00 1009 29.8 839 24.78 12.2 54 33 -3.5 25.7
11:05 1009 29.8 839 24.78 12.1 53.7 32 -4 24.8
11:10 1009 29.8 839 24.78 11.9 53.5 34 -3.6 25.6
11:15 1009 29.8 838 24.75 12.7 54.8 31 -3.8 25.1
11:20 1009 29.8 838 24.75 13 55.4 31 -3.6 25.5
11:25 1009 29.8 838 24.75 13.3 56 31 -3.3 26
11:30 1009 29.8 838 24.75 12.6 54.7 32 -3.6 25.6
11:35 1009 29.8 838 24.75 12.9 55.3 31 -3.6 25.6
11:40 1009 29.8 838 24.75 13.2 55.7 31 -3.4 25.9
11:45 1009 29.8 838 24.75 13.3 56 31 -3.6 25.6
11:50 1009 29.8 838 24.75 13.5 56.2 31 -3.3 26
11:55 1009 29.8 838 24.75 13.5 56.3 31 -3 26.5
12:00 1009 29.8 838 24.75 13.7 56.7 31 -2.9 26.7
12:05 1009 29.8 838 24.75 13.7 56.6 30 -3.3 26
12:10 1009 29.8 838 24.75 13.5 56.2 32 -2.9 26.8
12:15 1009 29.8 838 24.75 13.5 56.3 30 -3.5 25.7
12:20 1008 29.77 838 24.75 13.5 56.4 30 -3.7 25.4
12:25 1008 29.77 838 24.75 13.4 56 31 -3.5 25.8
12:30 1008 29.77 838 24.75 13.2 55.8 31 -3.3 26
12:35 1008 29.77 837 24.72 13.2 55.7 32 -3.2 26.3
12:40 1008 29.77 837 24.72 13.6 56.5 32 -2.7 27.1
12:45 1008 29.77 837 24.72 14.4 57.9 31 -2.5 27.4
12:50 1008 29.77 837 24.72 14.5 58.2 29 -3.4 25.9
12:55 1008 29.77 837 24.72 14.3 57.7 31 -2.5 27.4
13:00 1008 29.77 837 24.72 14.6 58.2 30 -2.9 26.8
13:05 1008 29.77 837 24.72 14.4 58 29 -3.3 26
13:10 1008 29.77 837 24.72 14.1 57.4 31 -2.9 26.8
13:15 1008 29.77 837 24.72 13.6 56.5 31 -3.2 26.3
13:20 1008 29.77 837 24.72 13.6 56.5 30 -3.4 25.8
13:25 1008 29.77 837 24.72 13.5 56.3 31 -3.1 26.4
13:30 1008 29.77 837 24.72 13.3 55.9 31 -3.5 25.8
13:35 1008 29.77 837 24.72 12.9 55.2 34 -2.7 27.1
13:40 1008 29.77 837 24.72 12.6 54.7 34 -2.9 26.7
13:45 1007 29.74 837 24.72 12.3 54.1 34 -3.2 26.3
13:50 1007 29.74 837 24.72 12.1 53.8 34 -3.1 26.4
13:55 1007 29.74 837 24.72 11.9 53.5 35 -2.9 26.9
14:00 1007 29.74 837 24.72 12.1 53.9 35 -3 26.7
14:05 1007 29.74 836 24.69 12 53.6 34 -3.2 26.3
14:10 1007 29.74 836 24.69 11.9 53.5 35 -3.1 26.4
14:15 1007 29.74 836 24.69 11.9 53.4 36 -2.7 27.2
14:20 1007 29.74 836 24.69 11.8 53.2 35 -3.1 26.5
14:25 1007 29.74 836 24.69 11.6 52.9 35 -3.1 26.4
14:30 1007 29.74 836 24.69 11.5 52.7 35 -3.4 25.8
14:35 1007 29.74 836 24.69 11.5 52.8 35 -3.5 25.7
14:40 1007 29.74 836 24.69 11.5 52.8 35 -3.4 25.9
14:45 1007 29.74 836 24.69 11.6 52.8 35 -3.2 26.2
14:50 1007 29.74 836 24.69 11.5 52.6 35 -3.3 26
14:55 1007 29.74 836 24.69 11.4 52.5 35 -3.4 25.9
15:00 1007 29.74 836 24.69 11.2 52.1 37 -2.9 26.9
15:05 1007 29.74 836 24.69 11.2 52.2 35 -3.5 25.7
15:10 1007 29.74 836 24.69 11.2 52.1 35 -3.5 25.6
15:15 1007 29.74 836 24.69 11.2 52.2 35 -3.7 25.4
15:20 1007 29.74 836 24.69 11.3 52.3 35 -3.5 25.6
15:25 1007 29.74 836 24.69 11.2 52.1 36 -3.1 26.4
15:30 1007 29.74 836 24.69 11.3 52.3 36 -3.1 26.4
15:35 1007 29.74 836 24.69 11.3 52.3 35 -3.8 25.2
15:40 1007 29.74 836 24.69 11.3 52.3 35 -3.5 25.6
15:45 1007 29.74 836 24.69 11.4 52.4 34 -3.8 25.2
15:50 1007 29.74 836 24.69 11.3 52.3 35 -3.5 25.7
15:55 1007 29.74 836 24.69 11.2 52.2 35 -3.7 25.3
16:00 1007 29.74 836 24.69 11.1 52 35 -3.7 25.4
16:05 1007 29.74 836 24.69 11.1 51.9 37 -3.1 26.5
16:10 1007 29.74 836 24.69 11.1 51.9 35 -3.6 25.5
16:15 1007 29.74 836 24.69 11 51.8 36 -3.3 26
16:20 1007 29.74 836 24.69 11 51.7 36 -3.5 25.7
16:25 1007 29.74 836 24.69 11 51.8 37 -3.1 26.4
16:30 1007 29.74 836 24.69 11 51.9 36 -3.5 25.7
16:35 1007 29.74 836 24.69 11.2 52.2 37 -2.8 27
16:40 1007 29.74 836 24.69 11.1 52 37 -3.1 26.5
16:45 1006 29.71 836 24.69 11 51.9 38 -2.6 27.3
16:50 1006 29.71 836 24.69 11 51.7 39 -2.4 27.7
16:55 1006 29.71 836 24.69 10.9 51.7 38 -2.9 26.9
17:00 1006 29.71 835 24.66 11 51.7 38 -2.9 26.8
17:05 1006 29.71 835 24.66 11 51.8 37 -3.1 26.3
17:10 1006 29.71 835 24.66 11 51.9 38 -2.9 26.8
17:15 1006 29.71 835 24.66 11.1 52 38 -2.8 27
17:20 1006 29.71 835 24.66 11.1 52.1 37 -3.1 26.5
17:25 1006 29.71 835 24.66 11.4 52.4 35 -3.4 25.9
17:30 1006 29.71 835 24.66 11.6 52.8 35 -3.4 25.8
17:35 1006 29.71 835 24.66 11.5 52.7 36 -2.9 26.8
17:40 1006 29.71 835 24.66 11.2 52.2 37 -2.8 27
17:45 1006 29.71 835 24.66 11 51.8 39 -2.3 27.8
17:50 1006 29.71 835 24.66 10.7 51.3 39 -2.6 27.4
17:55 1006 29.71 835 24.66 10.4 50.8 41 -2.4 27.7
18:00 1006 29.71 835 24.66 10.2 50.3 41 -2.5 27.6
18:05 1006 29.71 835 24.66 10 50 42 -2.4 27.7
18:10 1006 29.71 835 24.66 9.9 49.7 42 -2.4 27.7
18:15 1006 29.71 835 24.66 9.8 49.7 41 -2.8 27
18:20 1005 29.68 835 24.66 9.9 49.9 42 -2.4 27.7
18:25 1005 29.68 835 24.66 9.9 49.8 41 -2.7 27.1
18:30 1005 29.68 835 24.66 9.9 49.8 42 -2.5 27.5
18:35 1005 29.68 835 24.66 9.7 49.4 43 -2.4 27.7
18:40 1005 29.68 835 24.66 9.6 49.4 43 -2.3 27.8
18:45 1005 29.68 835 24.66 9.6 49.4 43 -2.4 27.6
18:50 1005 29.68 835 24.66 9.7 49.4 42 -2.7 27.2
18:55 1005 29.68 835 24.66 9.9 49.8 41 -2.7 27.2
19:00 1005 29.68 835 24.66 9.9 49.9 41 -2.8 27
19:05 1005 29.68 834 24.63 9.9 49.7 42 -2.3 27.8
19:10 1005 29.68 834 24.63 9.7 49.5 41 -2.8 26.9
19:15 1005 29.68 834 24.63 9.7 49.4 43 -2.1 28.2
19:20 1005 29.68 834 24.63 9.3 48.7 44 -2.3 27.8
19:25 1005 29.68 834 24.63 9.2 48.6 44 -2.5 27.6
19:30 1005 29.68 834 24.63 9.3 48.8 43 -2.7 27.2
19:35 1005 29.68 834 24.63 9.2 48.6 43 -2.5 27.4
19:40 1005 29.68 834 24.63 9.1 48.5 44 -2.3 27.9
19:45 1005 29.68 834 24.63 8.9 48 46 -2.1 28.3
19:50 1005 29.68 834 24.63 8.6 47.4 47 -2.2 28.1
19:55 1005 29.68 834 24.63 8.6 47.4 46 -2.5 27.5
20:00 1005 29.68 834 24.63 8.8 47.8 44 -2.7 27.1
20:05 1005 29.68 834 24.63 8.9 48 45 -2.4 27.6
20:10 1005 29.68 834 24.63 8.9 48 45 -2.4 27.6
20:15 1005 29.68 834 24.63 9 48.2 44 -2.6 27.3
20:20 1005 29.68 834 24.63 9.2 48.6 45 -2.2 28
20:25 1005 29.68 834 24.63 9.2 48.6 44 -2.5 27.5
20:30 1005 29.68 834 24.63 9.5 49.1 42 -2.8 26.9
20:35 1005 29.68 834 24.63 9.8 49.6 41 -2.7 27.1
20:40 1005 29.68 834 24.63 9.8 49.7 41 -2.7 27.2
20:45 1005 29.68 834 24.63 9.8 49.7 41 -2.8 27
20:50 1005 29.68 834 24.63 9.9 49.8 41 -2.6 27.4
20:55 1005 29.68 834 24.63 9.9 49.7 41 -2.8 26.9
21:00 1005 29.68 834 24.63 10 49.9 41 -2.6 27.4
21:05 1005 29.68 834 24.63 9.8 49.6 43 -2.3 27.9
21:10 1004 29.65 834 24.63 9.5 49.1 43 -2.3 27.8
21:15 1004 29.65 834 24.63 9.4 49 44 -2.3 27.9
21:20 1004 29.65 834 24.63 9.3 48.8 44 -2.2 28
21:25 1004 29.65 833 24.6 9.3 48.7 45 -2.2 28.1
21:30 1004 29.65 834 24.63 9.1 48.4 44 -2.3 27.8
21:35 1004 29.65 834 24.63 9.1 48.5 44 -2.5 27.6
21:40 1004 29.65 833 24.6 9.3 48.7 43 -2.5 27.5
21:45 1004 29.65 833 24.6 9.4 48.9 43 -2.6 27.2
21:50 1004 29.65 833 24.6 9.7 49.4 42 -2.7 27.2
21:55 1004 29.65 833 24.6 10 49.9 41 -2.6 27.3
22:00 1004 29.65 833 24.6 9.9 49.8 43 -2.2 28
22:05 1004 29.65 833 24.6 9.5 49.1 44 -2 28.3
22:10 1004 29.65 833 24.6 9.4 49 43 -2.5 27.5
22:15 1004 29.65 833 24.6 9.6 49.3 42 -2.6 27.2
22:20 1004 29.65 833 24.6 9.8 49.6 42 -2.6 27.3
22:25 1004 29.65 834 24.63 9.7 49.5 42 -2.7 27.2
22:30 1004 29.65 833 24.6 9.8 49.7 42 -2.5 27.5
22:35 1004 29.65 833 24.6 9.9 49.8 42 -2.2 28
22:40 1004 29.65 833 24.6 9.8 49.6 44 -2 28.4
22:45 1004 29.65 833 24.6 9.4 48.9 45 -1.9 28.6
22:50 1004 29.65 833 24.6 9.2 48.5 45 -2.1 28.3
22:55 1004 29.65 833 24.6 9.3 48.7 44 -2.2 28
23:00 1004 29.65 833 24.6 9.5 49.1 43 -2.3 27.8
23:05 1004 29.65 833 24.6 9.7 49.5 41 -2.7 27.1
23:10 1004 29.65 833 24.6 10 49.9 41 -2.5 27.5
23:15 1004 29.65 833 24.6 9.9 49.8 42 -2.5 27.4
23:20 1003 29.62 833 24.6 9.9 49.9 42 -2.3 27.8
23:25 1003 29.62 833 24.6 9.8 49.7 43 -2.2 28.1
23:30 1003 29.62 833 24.6 9.7 49.5 43 -2.2 28
23:35 1003 29.62 833 24.6 9.7 49.4 43 -2.3 27.9
23:40 1003 29.62 833 24.6 9.7 49.4 43 -2.4 27.7
23:45 1003 29.62 832 24.57 9.6 49.3 43 -2.2 28
23:50 1003 29.62 832 24.57 9.5 49 43 -2.4 27.7
23:55 1003 29.62 832 24.57 9.5 49.1 43 -2.3 27.8
24:00 1003 29.62 832 24.57 9.5 49.2 40 -3.2 26.2